createdAt,value
2018-11-07T00:02:14.492Z,50.17
2018-11-07T00:04:43.016Z,56.63
2018-11-07T00:07:11.574Z,61.07
2018-11-07T00:09:40.143Z,53.63
2018-11-07T00:12:08.850Z,62.23
2018-11-07T00:14:38.355Z,52.43
2018-11-07T00:17:07.024Z,51.73
2018-11-07T00:19:35.634Z,49.67
2018-11-07T00:22:04.284Z,48.80
2018-11-07T00:24:32.816Z,49.97
2018-11-07T00:27:01.362Z,55.10
2018-11-07T00:29:29.957Z,49.60
2018-11-07T00:31:58.647Z,48.93
2018-11-07T00:34:28.029Z,54.13
2018-11-07T00:36:56.551Z,48.83
2018-11-07T00:39:25.278Z,50.87
2018-11-07T00:41:53.900Z,51.63
2018-11-07T00:44:22.460Z,52.67
2018-11-07T00:46:51.147Z,53.40
2018-11-07T00:49:19.834Z,51.53
2018-11-07T00:51:52.165Z,51.00
2018-11-07T00:54:55.297Z,50.83
2018-11-07T00:57:24.091Z,50.57
2018-11-07T00:59:52.724Z,54.03
2018-11-07T01:02:21.749Z,48.33
2018-11-07T01:04:51.345Z,51.90
2018-11-07T01:07:20.027Z,58.07
2018-11-07T01:09:48.650Z,55.87
2018-11-07T01:12:17.390Z,55.43
2018-11-07T01:14:46.836Z,53.17
2018-11-07T01:17:15.467Z,51.70
2018-11-07T01:19:44.255Z,50.70
2018-11-07T01:22:12.978Z,48.67
2018-11-07T01:24:41.733Z,53.20
2018-11-07T01:27:10.469Z,50.67
2018-11-07T01:29:39.220Z,51.00
2018-11-07T01:32:07.873Z,62.93
2018-11-07T01:34:36.714Z,72.53
2018-11-07T01:37:05.385Z,67.20
2018-11-07T01:39:34.075Z,77.33
2018-11-07T01:42:02.864Z,76.90
2018-11-07T01:44:32.246Z,64.80
2018-11-07T01:47:00.932Z,61.23
2018-11-07T01:49:29.577Z,58.30
2018-11-07T01:51:58.384Z,55.63
2018-11-07T01:54:27.093Z,58.23
2018-11-07T01:56:55.876Z,56.07
2018-11-07T01:59:24.579Z,56.37
2018-11-07T02:01:53.238Z,54.83
2018-11-07T02:04:22.811Z,56.13
2018-11-07T02:06:51.467Z,56.13
2018-11-07T02:09:20.179Z,56.30
2018-11-07T02:11:48.838Z,56.93
2018-11-07T02:14:17.458Z,59.47
2018-11-07T02:16:46.186Z,62.07
2018-11-07T02:19:14.684Z,63.30
2018-11-07T02:21:43.158Z,59.00
2018-11-07T02:24:11.751Z,60.90
2018-11-07T02:26:40.411Z,62.47
2018-11-07T02:29:13.015Z,58.07
2018-11-07T02:31:43.093Z,70.77
2018-11-07T02:34:12.172Z,61.10
2018-11-07T02:36:40.844Z,64.53
2018-11-07T02:39:11.511Z,69.00
2018-11-07T02:41:40.452Z,62.67
2018-11-07T02:44:09.446Z,71.03
2018-11-07T02:46:38.138Z,72.13
2018-11-07T02:49:06.640Z,69.13
2018-11-07T02:51:35.154Z,68.33
2018-11-07T02:54:03.754Z,72.10
2018-11-07T02:56:32.250Z,64.87
2018-11-07T02:59:00.744Z,69.83
2018-11-07T03:01:29.585Z,68.77
2018-11-07T03:03:58.095Z,70.47
2018-11-07T03:06:26.639Z,72.67
2018-11-07T03:08:55.175Z,75.57
2018-11-07T03:11:23.701Z,71.47
2018-11-07T03:13:52.254Z,70.27
2018-11-07T03:16:20.720Z,78.97
2018-11-07T03:18:49.369Z,77.70
2018-11-07T03:21:17.851Z,74.43
2018-11-07T03:23:46.350Z,71.43
2018-11-07T03:26:14.948Z,74.30
2018-11-07T03:28:43.399Z,72.50
2018-11-07T03:31:11.950Z,74.00
2018-11-07T03:33:40.481Z,76.10
2018-11-07T03:36:09.029Z,71.70
2018-11-07T03:38:37.512Z,79.33
2018-11-07T03:41:06.007Z,70.93
2018-11-07T03:43:34.871Z,71.17
2018-11-07T03:46:03.385Z,72.53
2018-11-07T03:48:32.683Z,71.77
2018-11-07T03:51:01.633Z,68.57
2018-11-07T03:53:30.180Z,69.50
2018-11-07T03:55:58.712Z,72.10
2018-11-07T03:58:27.187Z,72.13
2018-11-07T04:00:55.662Z,69.40
2018-11-07T04:03:24.276Z,67.80
2018-11-07T04:05:52.767Z,71.97
2018-11-07T04:08:21.261Z,67.03
2018-11-07T04:10:49.863Z,67.83
2018-11-07T04:13:18.390Z,68.87
2018-11-07T04:15:46.915Z,63.40
2018-11-07T04:18:15.492Z,66.47
2018-11-07T04:20:44.045Z,60.17
2018-11-07T04:23:12.604Z,66.90
2018-11-07T04:25:41.080Z,67.43
2018-11-07T04:28:26.406Z,65.00
2018-11-07T04:30:57.238Z,68.17
2018-11-07T04:33:25.960Z,67.20
2018-11-07T04:35:54.633Z,66.97
2018-11-07T04:38:23.302Z,71.20
2018-11-07T04:40:51.995Z,66.93
2018-11-07T04:43:20.555Z,66.43
2018-11-07T04:45:49.237Z,56.53
2018-11-07T04:48:17.910Z,59.40
2018-11-07T04:50:46.459Z,58.50
2018-11-07T04:53:15.014Z,56.07
2018-11-07T04:55:43.521Z,54.87
2018-11-07T04:58:12.126Z,55.57
2018-11-07T05:00:40.626Z,55.53
2018-11-07T05:03:09.138Z,55.67
2018-11-07T05:05:37.655Z,55.13
2018-11-07T05:08:06.208Z,51.27
2018-11-07T05:10:34.736Z,52.10
2018-11-07T05:13:03.206Z,51.13
2018-11-07T05:15:32.130Z,55.33
2018-11-07T05:18:01.441Z,48.47
2018-11-07T05:20:30.222Z,48.93
2018-11-07T05:22:58.751Z,47.03
2018-11-07T05:25:27.336Z,46.77
2018-11-07T05:27:56.000Z,50.73
2018-11-07T05:30:25.009Z,46.53
2018-11-07T05:32:53.738Z,47.70
2018-11-07T05:35:22.474Z,50.80
2018-11-07T05:37:51.040Z,49.77
2018-11-07T05:40:19.614Z,52.13
2018-11-07T05:42:48.263Z,51.77
2018-11-07T05:45:16.854Z,51.87
2018-11-07T05:47:45.614Z,49.57
2018-11-07T05:50:14.202Z,55.13
2018-11-07T05:52:42.698Z,53.47
2018-11-07T05:55:11.333Z,53.33
2018-11-07T05:57:40.275Z,55.63
2018-11-07T06:00:10.597Z,51.77
2018-11-07T06:02:39.509Z,49.40
2018-11-07T06:05:09.234Z,56.57
2018-11-07T06:07:38.527Z,56.53
2018-11-07T06:10:09.224Z,55.87
2018-11-07T06:12:38.295Z,52.47
2018-11-07T06:15:09.260Z,58.70
2018-11-07T06:17:54.783Z,57.73
2018-11-07T06:20:27.018Z,46.77
2018-11-07T06:22:55.652Z,48.03
2018-11-07T06:25:24.325Z,47.03
2018-11-07T06:27:52.845Z,51.93
2018-11-07T06:30:21.391Z,49.93
2018-11-07T06:32:50.055Z,48.97
2018-11-07T06:35:18.645Z,47.47
2018-11-07T06:37:47.209Z,56.63
2018-11-07T06:40:15.758Z,53.37
2018-11-07T06:42:44.240Z,52.17
2018-11-07T06:45:12.784Z,49.93
2018-11-07T06:47:41.394Z,47.00
2018-11-07T06:50:13.286Z,42.73
2018-11-07T06:52:42.017Z,44.57
2018-11-07T06:55:11.286Z,44.80
2018-11-07T06:57:40.986Z,44.00
2018-11-07T07:00:12.521Z,44.13
2018-11-07T07:02:41.159Z,44.50
2018-11-07T07:05:09.794Z,51.77
2018-11-07T07:07:38.873Z,43.63
2018-11-07T07:10:10.596Z,40.57
2018-11-07T07:12:39.317Z,41.20
2018-11-07T07:15:09.597Z,36.30
2018-11-07T07:17:39.479Z,34.17
2018-11-07T07:20:10.413Z,33.80
2018-11-07T07:22:39.328Z,35.90
2018-11-07T07:25:08.762Z,52.83
2018-11-07T07:27:37.318Z,36.03
2018-11-07T07:30:08.214Z,30.10
2018-11-07T07:32:37.057Z,30.10
2018-11-07T07:35:05.973Z,28.97
2018-11-07T07:37:34.539Z,28.23
2018-11-07T07:40:03.714Z,31.53
2018-11-07T07:42:32.385Z,55.47
2018-11-07T07:45:01.084Z,131.63
2018-11-07T07:47:30.316Z,110.50
2018-11-07T07:49:58.889Z,111.80
2018-11-07T07:52:27.581Z,55.57
2018-11-07T07:54:56.165Z,46.97
2018-11-07T07:57:24.787Z,58.17
2018-11-07T07:59:53.409Z,43.13
2018-11-07T08:02:21.958Z,34.77
2018-11-07T08:04:50.569Z,48.00
2018-11-07T08:07:19.264Z,34.87
2018-11-07T08:09:47.838Z,92.63
2018-11-07T08:12:16.421Z,43.00
2018-11-07T08:14:44.987Z,32.63
2018-11-07T08:17:13.636Z,34.83
2018-11-07T08:19:42.312Z,37.53
2018-11-07T08:22:10.957Z,43.67
2018-11-07T08:24:39.541Z,29.33
2018-11-07T08:27:23.280Z,39.53
2018-11-07T08:29:52.109Z,42.50
2018-11-07T08:32:20.727Z,37.50
2018-11-07T08:34:50.211Z,35.67
2018-11-07T08:37:18.867Z,32.13
2018-11-07T08:39:47.577Z,86.33
2018-11-07T08:42:16.409Z,121.70
2018-11-07T08:44:44.938Z,35.80
2018-11-07T08:47:13.574Z,28.70
2018-11-07T08:49:42.172Z,26.93
2018-11-07T08:52:10.644Z,28.53
2018-11-07T08:54:39.117Z,27.47
2018-11-07T08:57:07.680Z,30.13
2018-11-07T08:59:36.194Z,27.43
2018-11-07T09:02:04.892Z,29.03
2018-11-07T09:04:33.381Z,26.37
2018-11-07T09:07:01.878Z,26.67
2018-11-07T09:09:30.468Z,26.30
2018-11-07T09:11:59.014Z,26.63
2018-11-07T09:14:27.709Z,26.53
2018-11-07T09:16:56.223Z,26.07
2018-11-07T09:19:24.735Z,24.40
2018-11-07T09:21:53.356Z,26.37
2018-11-07T09:24:21.850Z,25.13
2018-11-07T09:26:50.370Z,26.67
2018-11-07T09:29:18.945Z,22.67
2018-11-07T09:31:47.469Z,25.43
2018-11-07T09:34:16.072Z,25.27
2018-11-07T09:36:44.600Z,25.50
2018-11-07T09:39:13.090Z,23.20
2018-11-07T09:41:41.598Z,27.77
2018-11-07T09:44:10.121Z,27.83
2018-11-07T09:46:38.765Z,27.83
2018-11-07T09:49:07.320Z,29.97
2018-11-07T09:51:35.934Z,30.67
2018-11-07T09:54:04.630Z,31.90
2018-11-07T09:56:33.095Z,28.80
2018-11-07T09:59:01.694Z,33.50
2018-11-07T10:01:30.234Z,30.30
2018-11-07T10:03:58.887Z,37.13
2018-11-07T10:06:27.507Z,38.33
2018-11-07T10:08:56.007Z,33.23
2018-11-07T10:11:24.489Z,32.90
2018-11-07T10:13:53.082Z,31.43
2018-11-07T10:16:21.617Z,31.30
2018-11-07T10:18:50.101Z,31.17
2018-11-07T10:21:18.721Z,32.30
2018-11-07T10:23:47.262Z,34.17
2018-11-07T10:26:15.736Z,30.80
2018-11-07T10:28:44.587Z,29.07
2018-11-07T10:31:12.835Z,31.43
2018-11-07T10:33:41.327Z,27.97
2018-11-07T10:36:09.900Z,27.33
2018-11-07T10:38:38.522Z,29.00
2018-11-07T10:41:07.076Z,32.90
2018-11-07T10:43:35.652Z,30.90
2018-11-07T10:46:04.300Z,30.90
2018-11-07T10:48:32.936Z,28.67
2018-11-07T10:51:01.421Z,32.50
2018-11-07T10:53:29.990Z,29.97
2018-11-07T10:55:58.557Z,30.20
2018-11-07T10:58:27.130Z,34.23
2018-11-07T11:01:00.960Z,30.07
2018-11-07T11:03:31.819Z,30.53
2018-11-07T11:06:00.326Z,31.83
2018-11-07T11:08:28.820Z,32.40
2018-11-07T11:10:57.496Z,28.97
2018-11-07T11:13:26.182Z,33.17
2018-11-07T11:15:54.719Z,31.43
2018-11-07T11:18:23.458Z,28.53
2018-11-07T11:20:51.986Z,30.37
2018-11-07T11:23:20.544Z,28.33
2018-11-07T11:25:49.676Z,25.40
2018-11-07T11:28:18.183Z,26.27
2018-11-07T11:30:46.807Z,25.70
2018-11-07T11:33:15.520Z,27.13
2018-11-07T11:35:44.070Z,31.40
2018-11-07T11:38:12.599Z,27.07
2018-11-07T11:40:41.163Z,28.67
2018-11-07T11:43:09.704Z,29.67
2018-11-07T11:45:38.296Z,29.13
2018-11-07T11:48:06.793Z,31.20
2018-11-07T11:50:35.352Z,34.90
2018-11-07T11:53:03.898Z,28.57
2018-11-07T11:55:32.509Z,29.53
2018-11-07T11:58:02.089Z,33.03
2018-11-07T12:00:30.625Z,32.17
2018-11-07T12:02:59.253Z,34.83
2018-11-07T12:05:27.781Z,32.73
2018-11-07T12:07:56.279Z,32.37
2018-11-07T12:10:25.782Z,29.13
2018-11-07T12:12:57.151Z,30.30
2018-11-07T12:15:26.963Z,32.07
2018-11-07T12:17:55.720Z,29.10
2018-11-07T12:20:24.310Z,25.97
2018-11-07T12:22:52.861Z,27.43
2018-11-07T12:25:21.963Z,25.47
2018-11-07T12:27:50.673Z,25.83
2018-11-07T12:30:21.538Z,27.67
2018-11-07T12:32:51.235Z,25.77
2018-11-07T12:35:20.207Z,26.03
2018-11-07T12:37:48.821Z,28.27
2018-11-07T12:40:17.965Z,25.53
2018-11-07T12:42:46.608Z,22.70
2018-11-07T12:45:16.181Z,24.40
2018-11-07T12:47:44.782Z,20.60
2018-11-07T12:50:18.707Z,23.90
2018-11-07T12:52:47.571Z,23.47
2018-11-07T12:55:16.643Z,23.90
2018-11-07T12:57:45.325Z,25.30
2018-11-07T13:00:17.293Z,25.17
2018-11-07T13:02:45.876Z,20.73
2018-11-07T13:05:15.693Z,23.00
2018-11-07T13:07:45.074Z,21.73
2018-11-07T13:10:14.910Z,23.83
2018-11-07T13:12:44.332Z,20.67
2018-11-07T13:15:13.514Z,20.83
2018-11-07T13:17:42.058Z,23.20
2018-11-07T13:20:13.854Z,23.20
2018-11-07T13:22:43.154Z,23.50
2018-11-07T13:25:13.135Z,26.70
2018-11-07T13:27:41.688Z,25.40
2018-11-07T13:30:12.672Z,24.50
2018-11-07T13:32:41.338Z,30.23
2018-11-07T13:35:10.846Z,24.47
2018-11-07T13:37:40.409Z,22.70
2018-11-07T13:40:12.677Z,21.33
2018-11-07T13:42:41.326Z,23.53
2018-11-07T13:45:11.712Z,21.97
2018-11-07T13:47:41.403Z,19.63
2018-11-07T13:50:10.654Z,21.77
2018-11-07T13:52:39.134Z,18.53
2018-11-07T13:55:08.743Z,19.33
2018-11-07T13:57:37.448Z,20.40
2018-11-07T14:00:08.467Z,21.73
2018-11-07T14:02:37.095Z,22.40
2018-11-07T14:05:06.739Z,22.27
2018-11-07T14:07:35.269Z,25.17
2018-11-07T14:10:04.252Z,26.43
2018-11-07T14:12:32.815Z,26.53
2018-11-07T14:15:01.461Z,25.20
2018-11-07T14:17:30.040Z,29.10
2018-11-07T14:19:58.623Z,28.23
2018-11-07T14:22:27.170Z,23.57
2018-11-07T14:24:55.828Z,23.13
2018-11-07T14:27:24.415Z,23.77
2018-11-07T14:29:53.555Z,28.73
2018-11-07T14:32:22.164Z,26.33
2018-11-07T14:34:50.856Z,26.43
2018-11-07T14:37:19.374Z,25.07
2018-11-07T14:39:47.915Z,25.80
2018-11-07T14:42:16.447Z,25.47
2018-11-07T14:44:44.985Z,26.93
2018-11-07T14:47:13.535Z,26.37
2018-11-07T14:49:42.012Z,25.10
2018-11-07T14:52:10.498Z,29.03
2018-11-07T14:54:39.068Z,29.03
2018-11-07T14:57:07.552Z,31.37
2018-11-07T14:59:36.665Z,37.27
2018-11-07T15:02:05.946Z,52.50
2018-11-07T15:04:34.440Z,62.33
2018-11-07T15:07:03.130Z,51.87
2018-11-07T15:09:31.677Z,51.03
2018-11-07T15:12:00.318Z,42.50
2018-11-07T15:14:28.800Z,43.63
2018-11-07T15:16:57.307Z,33.93
2018-11-07T15:19:25.890Z,38.43
2018-11-07T15:21:54.387Z,42.57
2018-11-07T15:24:22.937Z,42.10
2018-11-07T15:26:51.487Z,39.47
2018-11-07T15:29:20.007Z,43.27
2018-11-07T15:31:48.473Z,41.23
2018-11-07T15:34:17.010Z,40.20
2018-11-07T15:36:45.464Z,45.13
2018-11-07T15:39:14.082Z,39.67
2018-11-07T15:41:42.993Z,43.43
2018-11-07T15:44:11.684Z,44.40
2018-11-07T15:46:40.260Z,47.27
2018-11-07T15:49:10.731Z,46.73
2018-11-07T15:51:40.174Z,48.13
2018-11-07T15:54:08.767Z,57.90
2018-11-07T15:56:37.339Z,71.83
2018-11-07T15:59:05.922Z,65.07
2018-11-07T16:01:34.433Z,51.43
2018-11-07T16:04:03.429Z,54.80
2018-11-07T16:06:31.943Z,58.80
2018-11-07T16:09:00.557Z,58.10
2018-11-07T16:11:30.075Z,45.57
2018-11-07T16:13:58.534Z,49.87
2018-11-07T16:16:27.826Z,52.27
2018-11-07T16:18:56.952Z,46.43
2018-11-07T16:21:25.600Z,45.33
2018-11-07T16:23:54.501Z,45.70
2018-11-07T16:26:23.083Z,48.17
2018-11-07T16:28:51.646Z,43.20
2018-11-07T16:31:20.316Z,54.67
2018-11-07T16:33:49.101Z,52.33
2018-11-07T16:36:17.799Z,54.77
2018-11-07T16:38:46.595Z,45.20
2018-11-07T16:41:15.221Z,49.53
2018-11-07T16:43:43.683Z,50.07
2018-11-07T16:46:12.211Z,45.40
2018-11-07T16:48:40.851Z,41.60
2018-11-07T16:51:09.273Z,44.90
2018-11-07T16:53:37.945Z,43.20
2018-11-07T16:56:06.701Z,40.77
2018-11-07T16:58:35.278Z,48.67
2018-11-07T17:01:04.175Z,44.03
2018-11-07T17:03:32.714Z,47.10
2018-11-07T17:06:01.245Z,43.77
2018-11-07T17:08:29.870Z,45.60
2018-11-07T17:10:58.454Z,46.67
2018-11-07T17:13:27.001Z,42.27
2018-11-07T17:15:55.632Z,48.27
2018-11-07T17:18:24.190Z,46.83
2018-11-07T17:20:52.762Z,49.40
2018-11-07T17:23:21.168Z,48.30
2018-11-07T17:25:49.809Z,45.93
2018-11-07T17:28:18.275Z,46.07
2018-11-07T17:30:46.806Z,48.30
2018-11-07T17:33:15.369Z,46.10
2018-11-07T17:35:43.925Z,47.93
2018-11-07T17:38:12.448Z,52.30
2018-11-07T17:40:40.912Z,52.07
2018-11-07T17:43:10.380Z,47.40
2018-11-07T17:45:39.670Z,49.97
2018-11-07T17:48:08.256Z,52.37
2018-11-07T17:50:36.631Z,49.83
2018-11-07T17:53:05.351Z,50.83
2018-11-07T17:55:33.842Z,49.33
2018-11-07T17:58:02.443Z,51.20
2018-11-07T18:00:33.486Z,50.47
2018-11-07T18:03:02.129Z,55.40
2018-11-07T18:05:30.858Z,54.17
2018-11-07T18:07:59.313Z,54.83
2018-11-07T18:10:27.835Z,59.33
2018-11-07T18:12:56.383Z,57.00
2018-11-07T18:15:24.945Z,63.50
2018-11-07T18:17:53.418Z,65.63
2018-11-07T18:20:21.996Z,61.93
2018-11-07T18:22:50.523Z,60.43
2018-11-07T18:25:19.274Z,62.90
2018-11-07T18:27:47.786Z,59.90
2018-11-07T18:30:17.280Z,61.80
2018-11-07T18:32:46.581Z,101.67
2018-11-07T18:35:16.786Z,151.73
2018-11-07T18:37:45.608Z,120.13
2018-11-07T18:40:15.587Z,98.97
2018-11-07T18:42:44.247Z,116.43
2018-11-07T18:45:13.494Z,91.40
2018-11-07T18:47:43.308Z,73.43
2018-11-07T18:50:13.347Z,71.63
2018-11-07T18:52:42.325Z,69.33
2018-11-07T18:55:13.938Z,74.07
2018-11-07T18:57:43.206Z,65.77
2018-11-07T19:00:13.643Z,67.10
2018-11-07T19:02:42.823Z,63.43
2018-11-07T19:05:11.788Z,61.93
2018-11-07T19:07:40.293Z,63.80
2018-11-07T19:10:18.256Z,68.10
2018-11-07T19:12:47.543Z,66.43
2018-11-07T19:15:16.714Z,62.60
2018-11-07T19:17:46.094Z,60.60
2018-11-07T19:20:15.401Z,65.73
2018-11-07T19:22:43.921Z,64.00
2018-11-07T19:25:14.884Z,72.27
2018-11-07T19:27:43.459Z,77.50
2018-11-07T19:30:20.879Z,88.00
2018-11-07T19:32:50.354Z,87.07
2018-11-07T19:35:19.469Z,77.33
2018-11-07T19:37:48.531Z,76.00
2018-11-07T19:40:18.577Z,81.30
2018-11-07T19:42:47.062Z,74.67
2018-11-07T19:45:17.681Z,68.77
2018-11-07T19:47:46.364Z,74.67
2018-11-07T19:50:16.082Z,81.00
2018-11-07T19:52:45.312Z,76.50
2018-11-07T19:55:15.796Z,72.80
2018-11-07T19:57:45.841Z,73.60
2018-11-07T20:00:19.692Z,74.57
2018-11-07T20:02:48.870Z,74.43
2018-11-07T20:05:17.535Z,72.83
2018-11-07T20:07:47.367Z,71.30
2018-11-07T20:10:19.948Z,91.10
2018-11-07T20:12:48.847Z,83.00
2018-11-07T20:15:18.672Z,74.33
2018-11-07T20:17:48.184Z,80.47
2018-11-07T20:20:18.642Z,79.30
2018-11-07T20:22:47.551Z,79.13
2018-11-07T20:25:16.599Z,82.00
2018-11-07T20:27:45.578Z,76.97
2018-11-07T20:30:15.727Z,90.77
2018-11-07T20:32:44.415Z,104.57
2018-11-07T20:35:15.350Z,99.43
2018-11-07T20:37:44.083Z,84.20
2018-11-07T20:40:14.269Z,78.07
2018-11-07T20:42:43.082Z,80.10
2018-11-07T20:45:12.679Z,83.13
2018-11-07T20:47:41.345Z,104.77
2018-11-07T20:50:12.246Z,91.67
2018-11-07T20:52:41.397Z,96.27
2018-11-07T20:55:10.823Z,116.17
2018-11-07T20:57:39.503Z,101.13
2018-11-07T21:00:13.696Z,86.60
2018-11-07T21:02:43.105Z,86.97
2018-11-07T21:05:12.265Z,89.63
2018-11-07T21:07:41.316Z,99.33
2018-11-07T21:10:12.820Z,92.07
2018-11-07T21:12:41.860Z,92.57
2018-11-07T21:15:11.709Z,93.27
2018-11-07T21:17:41.139Z,90.30
2018-11-07T21:20:10.021Z,93.00
2018-11-07T21:22:39.271Z,77.13
2018-11-07T21:25:07.933Z,87.33
2018-11-07T21:27:36.663Z,78.67
2018-11-07T21:30:08.401Z,87.57
2018-11-07T21:32:37.248Z,72.97
2018-11-07T21:35:06.050Z,76.30
2018-11-07T21:37:34.662Z,73.63
2018-11-07T21:40:03.486Z,78.43
2018-11-07T21:42:32.249Z,78.00
2018-11-07T21:45:00.854Z,95.93
2018-11-07T21:47:30.035Z,95.80
2018-11-07T21:49:58.721Z,107.20
2018-11-07T21:52:27.370Z,107.67
2018-11-07T21:54:56.099Z,103.27
2018-11-07T21:57:24.603Z,101.13
2018-11-07T21:59:53.215Z,93.03
2018-11-07T22:02:21.888Z,136.17
2018-11-07T22:04:50.670Z,131.80
2018-11-07T22:07:19.355Z,120.67
2018-11-07T22:09:48.081Z,112.23
2018-11-07T22:12:16.687Z,95.43
2018-11-07T22:14:45.555Z,107.00
2018-11-07T22:17:14.136Z,90.03
2018-11-07T22:19:42.745Z,92.47
2018-11-07T22:22:11.328Z,93.33
2018-11-07T22:24:40.048Z,93.20
2018-11-07T22:27:08.769Z,100.17
2018-11-07T22:29:37.427Z,95.93
2018-11-07T22:32:06.000Z,96.43
2018-11-07T22:34:34.542Z,97.10
2018-11-07T22:37:03.202Z,97.07
2018-11-07T22:39:31.793Z,92.33
2018-11-07T22:42:00.337Z,90.37
2018-11-07T22:44:28.891Z,86.23
2018-11-07T22:46:58.299Z,91.37
2018-11-07T22:49:26.840Z,86.67
2018-11-07T22:51:55.375Z,92.03
2018-11-07T22:54:23.862Z,84.73
2018-11-07T22:56:52.409Z,92.20
2018-11-07T22:59:21.178Z,83.10
2018-11-07T23:01:49.736Z,91.27
2018-11-07T23:04:18.308Z,100.37
2018-11-07T23:06:46.857Z,100.87
2018-11-07T23:09:15.522Z,102.37
2018-11-07T23:11:44.980Z,90.80
2018-11-07T23:14:14.514Z,86.93
2018-11-07T23:16:43.617Z,93.37
2018-11-07T23:19:12.534Z,91.67
2018-11-07T23:21:40.976Z,91.20
2018-11-07T23:24:09.602Z,94.90
2018-11-07T23:26:38.195Z,91.80
2018-11-07T23:29:06.799Z,92.50
2018-11-07T23:31:35.305Z,98.53
2018-11-07T23:34:03.930Z,102.23
2018-11-07T23:36:32.506Z,101.57
2018-11-07T23:39:01.139Z,97.90
2018-11-07T23:41:29.669Z,107.13
2018-11-07T23:43:58.286Z,114.87
2018-11-07T23:46:26.847Z,103.70
2018-11-07T23:48:55.505Z,101.40
2018-11-07T23:51:24.099Z,106.23
2018-11-07T23:53:53.032Z,91.20
2018-11-07T23:56:21.599Z,94.10
2018-11-07T23:58:50.165Z,93.13
